sensor_id;sensor_type;location;lat;lon;timestamp;P1;durP1;ratioP1;P2;durP2;ratioP2
2390;SDS011;22957;50.824;4.360;2023-07-20T00:01:46;1306.27;;;999.90;;
2390;SDS011;22957;50.824;4.360;2023-07-20T00:04:13;1308.53;;;999.90;;
2390;SDS011;22957;50.824;4.360;2023-07-20T00:06:38;1313.57;;;999.90;;
2390;SDS011;22957;50.824;4.360;2023-07-20T00:09:05;1309.63;;;999.90;;
2390;SDS011;22957;50.824;4.360;2023-07-20T00:11:35;1301.67;;;999.90;;
2390;SDS011;22957;50.824;4.360;2023-07-20T00:14:03;1319.40;;;999.90;;
2390;SDS011;22957;50.824;4.360;2023-07-20T00:16:29;1312.90;;;999.90;;
2390;SDS011;22957;50.824;4.360;2023-07-20T00:18:54;1323.90;;;999.90;;
2390;SDS011;22957;50.824;4.360;2023-07-20T00:21:20;1326.67;;;999.90;;
2390;SDS011;22957;50.824;4.360;2023-07-20T00:23:46;1317.90;;;999.90;;
2390;SDS011;22957;50.824;4.360;2023-07-20T00:26:11;1309.67;;;999.90;;
2390;SDS011;22957;50.824;4.360;2023-07-20T00:28:37;1321.90;;;999.90;;
2390;SDS011;22957;50.824;4.360;2023-07-20T00:31:02;1318.97;;;999.90;;
2390;SDS011;22957;50.824;4.360;2023-07-20T00:33:29;1313.27;;;999.90;;
2390;SDS011;22957;50.824;4.360;2023-07-20T00:35:54;1322.27;;;999.90;;
2390;SDS011;22957;50.824;4.360;2023-07-20T00:38:20;1319.43;;;999.90;;
2390;SDS011;22957;50.824;4.360;2023-07-20T00:40:45;1317.20;;;999.90;;
2390;SDS011;22957;50.824;4.360;2023-07-20T00:43:11;1310.47;;;999.90;;
2390;SDS011;22957;50.824;4.360;2023-07-20T00:45:37;1302.10;;;999.90;;
2390;SDS011;22957;50.824;4.360;2023-07-20T00:48:03;1310.80;;;999.90;;
2390;SDS011;22957;50.824;4.360;2023-07-20T00:50:31;1315.53;;;999.90;;
2390;SDS011;22957;50.824;4.360;2023-07-20T00:52:58;1303.87;;;999.90;;
2390;SDS011;22957;50.824;4.360;2023-07-20T00:55:24;1317.90;;;999.90;;
2390;SDS011;22957;50.824;4.360;2023-07-20T00:57:51;1305.97;;;999.90;;
2390;SDS011;22957;50.824;4.360;2023-07-20T01:00:17;1316.57;;;999.90;;
2390;SDS011;22957;50.824;4.360;2023-07-20T01:02:43;1309.93;;;999.90;;
2390;SDS011;22957;50.824;4.360;2023-07-20T01:05:09;1309.57;;;999.90;;
2390;SDS011;22957;50.824;4.360;2023-07-20T01:07:43;1311.90;;;999.90;;
2390;SDS011;22957;50.824;4.360;2023-07-20T01:12:57;1309.80;;;999.90;;
2390;SDS011;22957;50.824;4.360;2023-07-20T01:15:23;1300.23;;;999.90;;
2390;SDS011;22957;50.824;4.360;2023-07-20T01:17:49;1325.53;;;999.90;;
2390;SDS011;22957;50.824;4.360;2023-07-20T01:20:15;1327.10;;;999.90;;
2390;SDS011;22957;50.824;4.360;2023-07-20T01:31:24;1311.13;;;999.90;;
2390;SDS011;22957;50.824;4.360;2023-07-20T01:33:56;1311.17;;;999.90;;
2390;SDS011;22957;50.824;4.360;2023-07-20T01:36:24;1321.67;;;999.90;;
2390;SDS011;22957;50.824;4.360;2023-07-20T01:38:51;1315.00;;;999.90;;
2390;SDS011;22957;50.824;4.360;2023-07-20T01:41:18;1311.20;;;999.90;;
2390;SDS011;22957;50.824;4.360;2023-07-20T01:43:43;1308.30;;;999.90;;
2390;SDS011;22957;50.824;4.360;2023-07-20T01:46:09;1311.53;;;999.90;;
2390;SDS011;22957;50.824;4.360;2023-07-20T01:48:35;1315.70;;;999.90;;
2390;SDS011;22957;50.824;4.360;2023-07-20T01:51:00;1308.83;;;999.90;;
2390;SDS011;22957;50.824;4.360;2023-07-20T01:53:26;1308.27;;;999.90;;
2390;SDS011;22957;50.824;4.360;2023-07-20T01:55:55;1316.93;;;999.90;;
2390;SDS011;22957;50.824;4.360;2023-07-20T01:58:21;1319.13;;;999.90;;
2390;SDS011;22957;50.824;4.360;2023-07-20T02:00:47;1310.23;;;999.90;;
2390;SDS011;22957;50.824;4.360;2023-07-20T02:03:13;1304.77;;;999.90;;
2390;SDS011;22957;50.824;4.360;2023-07-20T02:05:39;1314.03;;;999.90;;
2390;SDS011;22957;50.824;4.360;2023-07-20T02:08:04;1325.93;;;999.90;;
2390;SDS011;22957;50.824;4.360;2023-07-20T02:10:30;1322.03;;;999.90;;
2390;SDS011;22957;50.824;4.360;2023-07-20T02:12:56;1321.67;;;999.90;;
2390;SDS011;22957;50.824;4.360;2023-07-20T02:15:21;1321.73;;;999.90;;
2390;SDS011;22957;50.824;4.360;2023-07-20T02:17:47;1313.37;;;999.90;;
2390;SDS011;22957;50.824;4.360;2023-07-20T02:20:13;1309.30;;;999.90;;
2390;SDS011;22957;50.824;4.360;2023-07-20T02:22:39;1306.70;;;999.90;;
2390;SDS011;22957;50.824;4.360;2023-07-20T02:25:05;1309.87;;;999.90;;
2390;SDS011;22957;50.824;4.360;2023-07-20T02:27:32;1304.23;;;999.90;;
2390;SDS011;22957;50.824;4.360;2023-07-20T02:30:00;1313.07;;;999.90;;
2390;SDS011;22957;50.824;4.360;2023-07-20T02:32:27;1315.30;;;999.90;;
2390;SDS011;22957;50.824;4.360;2023-07-20T02:34:53;1307.47;;;999.90;;
2390;SDS011;22957;50.824;4.360;2023-07-20T02:37:18;1322.67;;;999.90;;
2390;SDS011;22957;50.824;4.360;2023-07-20T02:39:44;1325.00;;;999.90;;
2390;SDS011;22957;50.824;4.360;2023-07-20T02:42:09;1306.17;;;999.90;;
2390;SDS011;22957;50.824;4.360;2023-07-20T02:44:35;1299.20;;;999.90;;
2390;SDS011;22957;50.824;4.360;2023-07-20T02:47:01;1309.30;;;999.90;;
2390;SDS011;22957;50.824;4.360;2023-07-20T02:49:26;1317.33;;;999.90;;
2390;SDS011;22957;50.824;4.360;2023-07-20T02:51:52;1309.53;;;999.90;;
2390;SDS011;22957;50.824;4.360;2023-07-20T02:54:18;1307.00;;;999.90;;
2390;SDS011;22957;50.824;4.360;2023-07-20T02:56:43;1302.70;;;999.90;;
2390;SDS011;22957;50.824;4.360;2023-07-20T02:59:09;1295.90;;;999.90;;
2390;SDS011;22957;50.824;4.360;2023-07-20T03:01:35;1312.57;;;999.90;;
2390;SDS011;22957;50.824;4.360;2023-07-20T03:04:00;1303.87;;;999.90;;
2390;SDS011;22957;50.824;4.360;2023-07-20T03:06:27;1309.67;;;999.90;;
2390;SDS011;22957;50.824;4.360;2023-07-20T03:08:52;1320.60;;;999.90;;
2390;SDS011;22957;50.824;4.360;2023-07-20T03:11:18;1315.63;;;999.90;;
2390;SDS011;22957;50.824;4.360;2023-07-20T03:13:45;1323.80;;;999.90;;
2390;SDS011;22957;50.824;4.360;2023-07-20T03:16:12;1323.77;;;999.90;;
2390;SDS011;22957;50.824;4.360;2023-07-20T03:18:41;1331.67;;;999.90;;
2390;SDS011;22957;50.824;4.360;2023-07-20T03:21:08;1318.47;;;999.90;;
2390;SDS011;22957;50.824;4.360;2023-07-20T03:23:36;1324.43;;;999.90;;
2390;SDS011;22957;50.824;4.360;2023-07-20T03:26:02;1329.43;;;999.90;;
2390;SDS011;22957;50.824;4.360;2023-07-20T03:28:27;1316.97;;;999.90;;
2390;SDS011;22957;50.824;4.360;2023-07-20T03:30:54;1317.20;;;999.90;;
2390;SDS011;22957;50.824;4.360;2023-07-20T03:33:21;1330.70;;;999.90;;
2390;SDS011;22957;50.824;4.360;2023-07-20T03:35:51;1325.40;;;999.90;;
2390;SDS011;22957;50.824;4.360;2023-07-20T03:38:16;1321.80;;;999.90;;
2390;SDS011;22957;50.824;4.360;2023-07-20T03:40:49;1325.37;;;999.90;;
2390;SDS011;22957;50.824;4.360;2023-07-20T03:43:15;1315.27;;;999.90;;
2390;SDS011;22957;50.824;4.360;2023-07-20T03:45:40;1321.77;;;999.90;;
2390;SDS011;22957;50.824;4.360;2023-07-20T03:48:06;1315.73;;;999.90;;
2390;SDS011;22957;50.824;4.360;2023-07-20T03:50:31;1318.90;;;999.90;;
2390;SDS011;22957;50.824;4.360;2023-07-20T03:52:58;1314.90;;;999.90;;
2390;SDS011;22957;50.824;4.360;2023-07-20T03:55:23;1314.73;;;999.90;;
2390;SDS011;22957;50.824;4.360;2023-07-20T03:57:49;1322.27;;;999.90;;
2390;SDS011;22957;50.824;4.360;2023-07-20T04:00:16;1324.57;;;999.90;;
2390;SDS011;22957;50.824;4.360;2023-07-20T04:02:42;1323.27;;;999.90;;
2390;SDS011;22957;50.824;4.360;2023-07-20T04:05:08;1326.00;;;999.90;;
2390;SDS011;22957;50.824;4.360;2023-07-20T04:07:33;1321.40;;;999.90;;
2390;SDS011;22957;50.824;4.360;2023-07-20T04:09:59;1330.50;;;999.90;;
2390;SDS011;22957;50.824;4.360;2023-07-20T04:12:24;1329.27;;;999.90;;
2390;SDS011;22957;50.824;4.360;2023-07-20T04:14:50;1322.93;;;999.90;;
2390;SDS011;22957;50.824;4.360;2023-07-20T04:17:16;1333.07;;;999.90;;
2390;SDS011;22957;50.824;4.360;2023-07-20T04:19:41;1323.63;;;999.90;;
2390;SDS011;22957;50.824;4.360;2023-07-20T04:22:07;1319.17;;;999.90;;
2390;SDS011;22957;50.824;4.360;2023-07-20T04:24:33;1329.43;;;999.90;;
2390;SDS011;22957;50.824;4.360;2023-07-20T04:26:58;1331.10;;;999.90;;
2390;SDS011;22957;50.824;4.360;2023-07-20T04:29:24;1326.93;;;999.90;;
2390;SDS011;22957;50.824;4.360;2023-07-20T04:31:49;1327.60;;;999.90;;
2390;SDS011;22957;50.824;4.360;2023-07-20T04:34:15;1324.83;;;999.90;;
2390;SDS011;22957;50.824;4.360;2023-07-20T04:36:41;1328.47;;;999.90;;
2390;SDS011;22957;50.824;4.360;2023-07-20T04:39:06;1332.47;;;999.90;;
2390;SDS011;22957;50.824;4.360;2023-07-20T04:41:33;1336.97;;;999.90;;
2390;SDS011;22957;50.824;4.360;2023-07-20T04:43:59;1331.40;;;999.90;;
2390;SDS011;22957;50.824;4.360;2023-07-20T04:46:24;1333.60;;;999.90;;
2390;SDS011;22957;50.824;4.360;2023-07-20T04:48:50;1330.10;;;999.90;;
2390;SDS011;22957;50.824;4.360;2023-07-20T04:51:15;1339.03;;;999.90;;
2390;SDS011;22957;50.824;4.360;2023-07-20T04:53:45;1329.63;;;999.90;;
2390;SDS011;22957;50.824;4.360;2023-07-20T04:56:14;1334.83;;;999.90;;
2390;SDS011;22957;50.824;4.360;2023-07-20T04:58:39;1337.17;;;999.90;;
2390;SDS011;22957;50.824;4.360;2023-07-20T05:01:05;1325.03;;;999.90;;
2390;SDS011;22957;50.824;4.360;2023-07-20T05:03:30;1335.70;;;999.90;;
2390;SDS011;22957;50.824;4.360;2023-07-20T05:05:56;1338.90;;;999.90;;
2390;SDS011;22957;50.824;4.360;2023-07-20T05:08:22;1339.73;;;999.90;;
2390;SDS011;22957;50.824;4.360;2023-07-20T05:10:48;1331.43;;;999.90;;
2390;SDS011;22957;50.824;4.360;2023-07-20T05:13:13;1331.80;;;999.90;;
2390;SDS011;22957;50.824;4.360;2023-07-20T05:15:39;1327.10;;;999.90;;
2390;SDS011;22957;50.824;4.360;2023-07-20T05:18:05;1327.17;;;999.90;;
2390;SDS011;22957;50.824;4.360;2023-07-20T05:20:30;1328.57;;;999.90;;
2390;SDS011;22957;50.824;4.360;2023-07-20T05:22:58;1331.07;;;999.90;;
2390;SDS011;22957;50.824;4.360;2023-07-20T05:25:24;1330.23;;;999.90;;
2390;SDS011;22957;50.824;4.360;2023-07-20T05:27:49;1326.00;;;999.90;;
2390;SDS011;22957;50.824;4.360;2023-07-20T05:30:15;1327.90;;;999.90;;
2390;SDS011;22957;50.824;4.360;2023-07-20T05:32:41;1330.57;;;999.90;;
2390;SDS011;22957;50.824;4.360;2023-07-20T05:35:07;1336.60;;;999.90;;
2390;SDS011;22957;50.824;4.360;2023-07-20T05:37:33;1331.47;;;999.90;;
2390;SDS011;22957;50.824;4.360;2023-07-20T05:39:59;1344.60;;;999.90;;
2390;SDS011;22957;50.824;4.360;2023-07-20T05:42:25;1333.20;;;999.90;;
2390;SDS011;22957;50.824;4.360;2023-07-20T05:44:50;1340.13;;;999.90;;
2390;SDS011;22957;50.824;4.360;2023-07-20T05:47:17;1327.73;;;999.90;;
2390;SDS011;22957;50.824;4.360;2023-07-20T05:49:43;1343.17;;;999.90;;
2390;SDS011;22957;50.824;4.360;2023-07-20T05:52:09;1351.27;;;999.90;;
2390;SDS011;22957;50.824;4.360;2023-07-20T05:54:34;1345.17;;;999.90;;
2390;SDS011;22957;50.824;4.360;2023-07-20T05:57:00;1331.90;;;999.90;;
2390;SDS011;22957;50.824;4.360;2023-07-20T05:59:26;1335.70;;;999.90;;
2390;SDS011;22957;50.824;4.360;2023-07-20T06:01:54;1338.87;;;999.90;;
2390;SDS011;22957;50.824;4.360;2023-07-20T06:04:20;1327.87;;;999.90;;
2390;SDS011;22957;50.824;4.360;2023-07-20T06:06:45;1337.63;;;999.90;;
2390;SDS011;22957;50.824;4.360;2023-07-20T06:09:11;1340.07;;;999.90;;
2390;SDS011;22957;50.824;4.360;2023-07-20T06:11:37;1331.53;;;999.90;;
2390;SDS011;22957;50.824;4.360;2023-07-20T06:14:04;1343.63;;;999.90;;
2390;SDS011;22957;50.824;4.360;2023-07-20T06:16:30;1352.23;;;999.90;;
2390;SDS011;22957;50.824;4.360;2023-07-20T06:18:55;1359.60;;;999.90;;
2390;SDS011;22957;50.824;4.360;2023-07-20T06:21:21;1350.77;;;999.90;;
2390;SDS011;22957;50.824;4.360;2023-07-20T06:23:47;1360.33;;;999.90;;
2390;SDS011;22957;50.824;4.360;2023-07-20T06:26:12;1356.07;;;999.90;;
2390;SDS011;22957;50.824;4.360;2023-07-20T06:28:38;1358.00;;;999.90;;
2390;SDS011;22957;50.824;4.360;2023-07-20T06:31:03;1350.07;;;999.90;;
2390;SDS011;22957;50.824;4.360;2023-07-20T06:33:29;1348.53;;;999.90;;
2390;SDS011;22957;50.824;4.360;2023-07-20T06:35:55;1349.63;;;999.90;;
2390;SDS011;22957;50.824;4.360;2023-07-20T06:38:22;1356.97;;;999.90;;
2390;SDS011;22957;50.824;4.360;2023-07-20T06:40:48;1354.30;;;999.90;;
2390;SDS011;22957;50.824;4.360;2023-07-20T06:43:14;1364.50;;;999.90;;
2390;SDS011;22957;50.824;4.360;2023-07-20T06:45:40;1368.93;;;999.90;;
2390;SDS011;22957;50.824;4.360;2023-07-20T06:48:06;1361.77;;;999.90;;
2390;SDS011;22957;50.824;4.360;2023-07-20T06:50:32;1373.97;;;999.90;;
2390;SDS011;22957;50.824;4.360;2023-07-20T06:52:58;1365.03;;;999.90;;
2390;SDS011;22957;50.824;4.360;2023-07-20T06:55:24;1377.40;;;999.90;;
2390;SDS011;22957;50.824;4.360;2023-07-20T06:57:50;1372.93;;;999.90;;
2390;SDS011;22957;50.824;4.360;2023-07-20T07:00:16;1376.47;;;999.90;;
2390;SDS011;22957;50.824;4.360;2023-07-20T07:02:42;1381.60;;;999.90;;
2390;SDS011;22957;50.824;4.360;2023-07-20T07:05:08;1382.53;;;999.90;;
2390;SDS011;22957;50.824;4.360;2023-07-20T07:07:34;1371.13;;;999.90;;
2390;SDS011;22957;50.824;4.360;2023-07-20T07:09:59;1382.90;;;999.90;;
2390;SDS011;22957;50.824;4.360;2023-07-20T07:12:25;1387.67;;;999.90;;
2390;SDS011;22957;50.824;4.360;2023-07-20T07:14:51;1382.40;;;999.90;;
2390;SDS011;22957;50.824;4.360;2023-07-20T07:17:17;1390.07;;;999.90;;
2390;SDS011;22957;50.824;4.360;2023-07-20T07:19:43;1389.47;;;999.90;;
2390;SDS011;22957;50.824;4.360;2023-07-20T07:22:09;1381.50;;;999.90;;
2390;SDS011;22957;50.824;4.360;2023-07-20T07:24:35;1380.97;;;999.90;;
2390;SDS011;22957;50.824;4.360;2023-07-20T07:27:01;1388.10;;;999.90;;
2390;SDS011;22957;50.824;4.360;2023-07-20T07:29:27;1390.87;;;999.90;;
2390;SDS011;22957;50.824;4.360;2023-07-20T07:31:53;1384.67;;;999.90;;
2390;SDS011;22957;50.824;4.360;2023-07-20T07:34:18;1384.93;;;999.90;;
2390;SDS011;22957;50.824;4.360;2023-07-20T07:36:44;1388.10;;;999.90;;
2390;SDS011;22957;50.824;4.360;2023-07-20T07:39:10;1389.90;;;999.90;;
2390;SDS011;22957;50.824;4.360;2023-07-20T07:41:36;1392.20;;;999.90;;
2390;SDS011;22957;50.824;4.360;2023-07-20T07:44:01;1401.77;;;999.90;;
2390;SDS011;22957;50.824;4.360;2023-07-20T07:46:27;1407.80;;;999.90;;
2390;SDS011;22957;50.824;4.360;2023-07-20T07:48:52;1401.30;;;999.90;;
2390;SDS011;22957;50.824;4.360;2023-07-20T07:51:18;1402.00;;;999.90;;
2390;SDS011;22957;50.824;4.360;2023-07-20T07:53:45;1409.27;;;999.90;;
2390;SDS011;22957;50.824;4.360;2023-07-20T07:56:11;1407.40;;;999.90;;
2390;SDS011;22957;50.824;4.360;2023-07-20T07:58:37;1414.83;;;999.90;;
2390;SDS011;22957;50.824;4.360;2023-07-20T08:01:03;1427.47;;;999.90;;
2390;SDS011;22957;50.824;4.360;2023-07-20T08:03:29;1426.40;;;999.90;;
2390;SDS011;22957;50.824;4.360;2023-07-20T08:05:54;1420.77;;;999.90;;
2390;SDS011;22957;50.824;4.360;2023-07-20T08:08:20;1424.50;;;999.90;;
2390;SDS011;22957;50.824;4.360;2023-07-20T08:10:46;1414.47;;;999.90;;
2390;SDS011;22957;50.824;4.360;2023-07-20T08:13:12;1403.03;;;999.90;;
2390;SDS011;22957;50.824;4.360;2023-07-20T08:15:38;1411.10;;;999.90;;
2390;SDS011;22957;50.824;4.360;2023-07-20T08:18:04;1431.07;;;999.90;;
2390;SDS011;22957;50.824;4.360;2023-07-20T08:20:30;1448.60;;;999.90;;
2390;SDS011;22957;50.824;4.360;2023-07-20T08:22:57;1460.87;;;999.90;;
2390;SDS011;22957;50.824;4.360;2023-07-20T08:25:24;1472.03;;;999.90;;
2390;SDS011;22957;50.824;4.360;2023-07-20T08:27:50;1477.47;;;999.90;;
2390;SDS011;22957;50.824;4.360;2023-07-20T08:30:16;1482.33;;;999.90;;
2390;SDS011;22957;50.824;4.360;2023-07-20T08:32:42;1441.90;;;999.90;;
2390;SDS011;22957;50.824;4.360;2023-07-20T08:35:08;1485.13;;;999.90;;
2390;SDS011;22957;50.824;4.360;2023-07-20T08:37:33;1479.20;;;999.90;;
2390;SDS011;22957;50.824;4.360;2023-07-20T08:39:59;1481.93;;;999.90;;
2390;SDS011;22957;50.824;4.360;2023-07-20T08:42:26;1493.03;;;999.90;;
2390;SDS011;22957;50.824;4.360;2023-07-20T08:44:52;1489.00;;;999.90;;
2390;SDS011;22957;50.824;4.360;2023-07-20T08:47:19;1480.07;;;999.90;;
2390;SDS011;22957;50.824;4.360;2023-07-20T08:49:48;1493.50;;;999.90;;
2390;SDS011;22957;50.824;4.360;2023-07-20T08:52:14;1502.73;;;999.90;;
2390;SDS011;22957;50.824;4.360;2023-07-20T08:54:40;1514.67;;;999.90;;
2390;SDS011;22957;50.824;4.360;2023-07-20T08:57:06;1521.53;;;999.90;;
2390;SDS011;22957;50.824;4.360;2023-07-20T08:59:32;1522.73;;;999.90;;
2390;SDS011;22957;50.824;4.360;2023-07-20T09:02:01;1519.50;;;999.90;;
2390;SDS011;22957;50.824;4.360;2023-07-20T09:04:28;1520.83;;;999.90;;
2390;SDS011;22957;50.824;4.360;2023-07-20T09:06:54;1520.70;;;999.90;;
2390;SDS011;22957;50.824;4.360;2023-07-20T09:09:20;1527.40;;;999.90;;
2390;SDS011;22957;50.824;4.360;2023-07-20T09:11:47;1521.63;;;999.90;;
2390;SDS011;22957;50.824;4.360;2023-07-20T09:14:16;1530.93;;;999.90;;
2390;SDS011;22957;50.824;4.360;2023-07-20T09:19:15;1527.43;;;999.90;;
2390;SDS011;22957;50.824;4.360;2023-07-20T09:21:44;1526.43;;;999.90;;
2390;SDS011;22957;50.824;4.360;2023-07-20T09:24:10;975.20;;;883.77;;
2390;SDS011;22957;50.824;4.360;2023-07-20T09:26:40;1503.50;;;999.90;;
2390;SDS011;22957;50.824;4.360;2023-07-20T09:29:08;1527.57;;;999.90;;
2390;SDS011;22957;50.824;4.360;2023-07-20T09:31:37;1517.93;;;999.90;;
2390;SDS011;22957;50.824;4.360;2023-07-20T09:34:03;1519.67;;;999.90;;
2390;SDS011;22957;50.824;4.360;2023-07-20T09:36:31;1512.87;;;999.90;;
2390;SDS011;22957;50.824;4.360;2023-07-20T09:39:02;1516.17;;;999.90;;
2390;SDS011;22957;50.824;4.360;2023-07-20T09:41:29;1516.27;;;999.90;;
2390;SDS011;22957;50.824;4.360;2023-07-20T09:43:55;1517.40;;;999.90;;
2390;SDS011;22957;50.824;4.360;2023-07-20T09:46:20;1514.83;;;999.90;;
2390;SDS011;22957;50.824;4.360;2023-07-20T09:48:53;1525.10;;;999.90;;
2390;SDS011;22957;50.824;4.360;2023-07-20T09:51:20;1518.17;;;999.90;;
2390;SDS011;22957;50.824;4.360;2023-07-20T09:53:48;1528.50;;;999.90;;
2390;SDS011;22957;50.824;4.360;2023-07-20T09:56:15;1513.13;;;999.90;;
2390;SDS011;22957;50.824;4.360;2023-07-20T09:58:42;1530.10;;;999.90;;
2390;SDS011;22957;50.824;4.360;2023-07-20T10:01:10;1526.80;;;999.90;;
2390;SDS011;22957;50.824;4.360;2023-07-20T10:03:39;1528.27;;;999.90;;
2390;SDS011;22957;50.824;4.360;2023-07-20T10:06:08;1522.63;;;999.90;;
2390;SDS011;22957;50.824;4.360;2023-07-20T10:08:40;1479.23;;;999.90;;
2390;SDS011;22957;50.824;4.360;2023-07-20T10:11:07;1486.67;;;999.90;;
2390;SDS011;22957;50.824;4.360;2023-07-20T10:13:35;1503.40;;;999.90;;
2390;SDS011;22957;50.824;4.360;2023-07-20T10:16:14;1541.23;;;999.90;;
2390;SDS011;22957;50.824;4.360;2023-07-20T10:18:51;1548.50;;;999.90;;
2390;SDS011;22957;50.824;4.360;2023-07-20T10:21:26;1549.77;;;999.90;;
2390;SDS011;22957;50.824;4.360;2023-07-20T10:23:54;1564.70;;;999.90;;
2390;SDS011;22957;50.824;4.360;2023-07-20T10:26:21;1563.40;;;999.90;;
2390;SDS011;22957;50.824;4.360;2023-07-20T10:28:47;1563.17;;;999.90;;
2390;SDS011;22957;50.824;4.360;2023-07-20T10:31:13;1553.20;;;999.90;;
2390;SDS011;22957;50.824;4.360;2023-07-20T10:33:40;1557.23;;;999.90;;
2390;SDS011;22957;50.824;4.360;2023-07-20T10:36:06;1558.43;;;999.90;;
2390;SDS011;22957;50.824;4.360;2023-07-20T10:38:38;1551.97;;;999.90;;
2390;SDS011;22957;50.824;4.360;2023-07-20T10:41:17;1540.00;;;999.90;;
2390;SDS011;22957;50.824;4.360;2023-07-20T10:43:49;1542.27;;;999.90;;
2390;SDS011;22957;50.824;4.360;2023-07-20T10:46:33;1540.63;;;999.90;;
2390;SDS011;22957;50.824;4.360;2023-07-20T10:49:08;1541.83;;;999.90;;
2390;SDS011;22957;50.824;4.360;2023-07-20T10:51:38;1534.17;;;999.90;;
2390;SDS011;22957;50.824;4.360;2023-07-20T10:54:09;1540.63;;;999.90;;
2390;SDS011;22957;50.824;4.360;2023-07-20T10:56:55;1543.67;;;999.90;;
2390;SDS011;22957;50.824;4.360;2023-07-20T11:01:54;1547.67;;;999.90;;
2390;SDS011;22957;50.824;4.360;2023-07-20T11:04:37;1549.10;;;999.90;;
2390;SDS011;22957;50.824;4.360;2023-07-20T11:07:06;1545.40;;;999.90;;
2390;SDS011;22957;50.824;4.360;2023-07-20T11:09:36;1551.13;;;999.90;;
2390;SDS011;22957;50.824;4.360;2023-07-20T11:12:09;1549.37;;;999.90;;
2390;SDS011;22957;50.824;4.360;2023-07-20T11:14:40;1548.30;;;999.90;;
2390;SDS011;22957;50.824;4.360;2023-07-20T11:17:17;1542.40;;;999.90;;
2390;SDS011;22957;50.824;4.360;2023-07-20T11:19:47;1549.50;;;999.90;;
2390;SDS011;22957;50.824;4.360;2023-07-20T11:22:15;1539.80;;;999.90;;
2390;SDS011;22957;50.824;4.360;2023-07-20T11:24:42;1546.80;;;999.90;;
2390;SDS011;22957;50.824;4.360;2023-07-20T11:27:08;1542.43;;;999.90;;
2390;SDS011;22957;50.824;4.360;2023-07-20T11:29:34;1540.83;;;999.90;;
2390;SDS011;22957;50.824;4.360;2023-07-20T11:32:01;1546.90;;;999.90;;
2390;SDS011;22957;50.824;4.360;2023-07-20T11:34:29;1537.70;;;999.90;;
2390;SDS011;22957;50.824;4.360;2023-07-20T11:36:55;1540.03;;;999.90;;
2390;SDS011;22957;50.824;4.360;2023-07-20T11:39:22;1546.93;;;999.90;;
2390;SDS011;22957;50.824;4.360;2023-07-20T11:41:51;1551.03;;;999.90;;
2390;SDS011;22957;50.824;4.360;2023-07-20T11:44:18;1538.03;;;999.90;;
2390;SDS011;22957;50.824;4.360;2023-07-20T11:46:45;1539.57;;;999.90;;
2390;SDS011;22957;50.824;4.360;2023-07-20T11:49:11;1538.20;;;999.90;;
2390;SDS011;22957;50.824;4.360;2023-07-20T11:51:38;1542.67;;;999.90;;
2390;SDS011;22957;50.824;4.360;2023-07-20T11:54:05;1532.33;;;999.90;;
2390;SDS011;22957;50.824;4.360;2023-07-20T11:56:32;1534.40;;;999.90;;
2390;SDS011;22957;50.824;4.360;2023-07-20T11:58:58;1533.70;;;999.90;;
2390;SDS011;22957;50.824;4.360;2023-07-20T12:01:25;1529.70;;;999.90;;
2390;SDS011;22957;50.824;4.360;2023-07-20T12:03:56;1525.03;;;999.90;;
2390;SDS011;22957;50.824;4.360;2023-07-20T12:06:23;1520.00;;;999.90;;
2390;SDS011;22957;50.824;4.360;2023-07-20T12:08:50;1513.20;;;999.90;;
2390;SDS011;22957;50.824;4.360;2023-07-20T12:11:30;1514.77;;;999.90;;
2390;SDS011;22957;50.824;4.360;2023-07-20T12:13:57;1514.87;;;999.90;;
2390;SDS011;22957;50.824;4.360;2023-07-20T12:16:26;1516.67;;;999.90;;
2390;SDS011;22957;50.824;4.360;2023-07-20T12:19:06;1518.30;;;999.90;;
2390;SDS011;22957;50.824;4.360;2023-07-20T12:21:36;1513.20;;;999.90;;
2390;SDS011;22957;50.824;4.360;2023-07-20T12:24:03;1508.37;;;999.90;;
2390;SDS011;22957;50.824;4.360;2023-07-20T12:26:30;1515.53;;;999.90;;
2390;SDS011;22957;50.824;4.360;2023-07-20T12:28:56;1518.00;;;999.90;;
2390;SDS011;22957;50.824;4.360;2023-07-20T12:31:22;1522.50;;;999.90;;
2390;SDS011;22957;50.824;4.360;2023-07-20T12:33:49;1514.43;;;999.90;;
2390;SDS011;22957;50.824;4.360;2023-07-20T12:36:15;1518.73;;;999.90;;
2390;SDS011;22957;50.824;4.360;2023-07-20T12:38:41;1514.77;;;999.90;;
2390;SDS011;22957;50.824;4.360;2023-07-20T12:41:07;1516.27;;;999.90;;
2390;SDS011;22957;50.824;4.360;2023-07-20T12:43:32;1518.43;;;999.90;;
2390;SDS011;22957;50.824;4.360;2023-07-20T12:45:59;1493.57;;;999.90;;
2390;SDS011;22957;50.824;4.360;2023-07-20T12:48:24;1500.77;;;999.90;;
2390;SDS011;22957;50.824;4.360;2023-07-20T12:50:50;1494.03;;;999.90;;
2390;SDS011;22957;50.824;4.360;2023-07-20T12:53:16;1499.50;;;999.90;;
2390;SDS011;22957;50.824;4.360;2023-07-20T12:55:41;1489.13;;;999.90;;
2390;SDS011;22957;50.824;4.360;2023-07-20T12:58:07;1493.43;;;999.90;;
2390;SDS011;22957;50.824;4.360;2023-07-20T13:00:34;1486.50;;;999.90;;
2390;SDS011;22957;50.824;4.360;2023-07-20T13:02:59;1489.43;;;999.90;;
2390;SDS011;22957;50.824;4.360;2023-07-20T13:05:29;1478.90;;;999.90;;
2390;SDS011;22957;50.824;4.360;2023-07-20T13:07:58;1479.30;;;999.90;;
2390;SDS011;22957;50.824;4.360;2023-07-20T13:10:23;1481.67;;;999.90;;
2390;SDS011;22957;50.824;4.360;2023-07-20T13:12:49;1475.30;;;999.90;;
2390;SDS011;22957;50.824;4.360;2023-07-20T13:15:16;1476.70;;;999.90;;
2390;SDS011;22957;50.824;4.360;2023-07-20T13:17:42;1478.83;;;999.90;;
2390;SDS011;22957;50.824;4.360;2023-07-20T13:20:09;1458.43;;;999.90;;
2390;SDS011;22957;50.824;4.360;2023-07-20T13:22:36;1446.87;;;999.90;;
2390;SDS011;22957;50.824;4.360;2023-07-20T13:25:02;1447.93;;;999.90;;
2390;SDS011;22957;50.824;4.360;2023-07-20T13:27:28;1451.70;;;999.90;;
2390;SDS011;22957;50.824;4.360;2023-07-20T13:29:55;1440.60;;;999.90;;
2390;SDS011;22957;50.824;4.360;2023-07-20T13:32:21;1448.47;;;999.90;;
2390;SDS011;22957;50.824;4.360;2023-07-20T13:34:47;1441.10;;;999.90;;
2390;SDS011;22957;50.824;4.360;2023-07-20T13:37:13;1442.47;;;999.90;;
2390;SDS011;22957;50.824;4.360;2023-07-20T13:39:40;1443.17;;;999.90;;
2390;SDS011;22957;50.824;4.360;2023-07-20T13:42:06;1438.37;;;999.90;;
2390;SDS011;22957;50.824;4.360;2023-07-20T13:44:34;1431.10;;;999.90;;
2390;SDS011;22957;50.824;4.360;2023-07-20T13:47:00;1445.47;;;999.90;;
2390;SDS011;22957;50.824;4.360;2023-07-20T13:49:26;1445.53;;;999.90;;
2390;SDS011;22957;50.824;4.360;2023-07-20T13:51:52;1443.40;;;999.90;;
2390;SDS011;22957;50.824;4.360;2023-07-20T13:54:18;1438.43;;;999.90;;
2390;SDS011;22957;50.824;4.360;2023-07-20T13:56:44;1440.20;;;999.90;;
2390;SDS011;22957;50.824;4.360;2023-07-20T13:59:09;1429.57;;;999.90;;
2390;SDS011;22957;50.824;4.360;2023-07-20T14:01:35;1435.93;;;999.90;;
2390;SDS011;22957;50.824;4.360;2023-07-20T14:04:01;1442.40;;;999.90;;
2390;SDS011;22957;50.824;4.360;2023-07-20T14:06:31;1440.27;;;999.90;;
2390;SDS011;22957;50.824;4.360;2023-07-20T14:08:57;1443.97;;;999.90;;
2390;SDS011;22957;50.824;4.360;2023-07-20T14:11:23;1432.53;;;999.90;;